createdAt,value
2023-12-05T00:02:25.150Z,19.50
2023-12-05T00:04:52.703Z,21.70
2023-12-05T00:07:24.183Z,22.97
2023-12-05T00:09:51.968Z,24.47
2023-12-05T00:12:19.532Z,21.93
2023-12-05T00:14:47.176Z,23.77
2023-12-05T00:17:14.892Z,19.97
2023-12-05T00:19:42.634Z,19.93
2023-12-05T00:22:10.207Z,21.87
2023-12-05T00:24:39.311Z,18.97
2023-12-05T00:27:06.924Z,22.07
2023-12-05T00:29:34.436Z,22.03
2023-12-05T00:32:01.979Z,19.73
2023-12-05T00:34:29.508Z,19.57
2023-12-05T00:36:57.208Z,20.77
2023-12-05T00:39:24.734Z,20.90
2023-12-05T00:41:53.677Z,20.53
2023-12-05T00:44:21.220Z,18.50
2023-12-05T00:46:48.804Z,20.00
2023-12-05T00:49:16.429Z,19.50
2023-12-05T00:51:44.019Z,20.63
2023-12-05T00:54:13.161Z,19.27
2023-12-05T00:56:41.974Z,21.60
2023-12-05T00:59:10.767Z,21.47
2023-12-05T01:01:38.295Z,20.73
2023-12-05T01:04:06.324Z,20.20
2023-12-05T01:06:33.990Z,20.90
2023-12-05T01:09:01.676Z,20.67
2023-12-05T01:11:29.343Z,18.77
2023-12-05T01:13:57.461Z,21.97
2023-12-05T01:16:26.386Z,20.03
2023-12-05T01:18:53.942Z,20.37
2023-12-05T01:21:21.556Z,21.60
2023-12-05T01:23:49.071Z,21.10
2023-12-05T01:26:16.565Z,22.80
2023-12-05T01:28:44.047Z,19.67
2023-12-05T01:31:11.552Z,19.77
2023-12-05T01:33:40.427Z,21.30
2023-12-05T01:36:11.232Z,19.13
2023-12-05T01:38:38.876Z,21.20
2023-12-05T01:41:06.398Z,20.10
2023-12-05T01:43:33.840Z,19.93
2023-12-05T01:46:02.269Z,19.47
2023-12-05T01:48:31.899Z,18.10
2023-12-05T01:51:02.231Z,19.77
2023-12-05T01:53:30.304Z,19.63
2023-12-05T01:55:57.966Z,20.17
2023-12-05T01:58:25.681Z,21.07
2023-12-05T02:00:53.604Z,19.83
2023-12-05T02:03:21.342Z,20.27
2023-12-05T02:05:50.977Z,21.20
2023-12-05T02:08:23.160Z,23.73
2023-12-05T02:10:51.062Z,21.13
2023-12-05T02:13:18.702Z,20.83
2023-12-05T02:15:48.739Z,21.23
2023-12-05T02:18:19.643Z,19.87
2023-12-05T02:20:52.563Z,19.23
2023-12-05T02:24:06.936Z,20.73
2023-12-05T02:26:43.803Z,19.97
2023-12-05T02:29:12.769Z,20.30
2023-12-05T02:31:40.261Z,24.17
2023-12-05T02:34:08.317Z,21.20
2023-12-05T02:36:43.044Z,22.47
2023-12-05T02:39:17.910Z,21.77
2023-12-05T02:41:50.421Z,22.13
2023-12-05T02:44:20.520Z,22.53
2023-12-05T02:46:50.667Z,18.93
2023-12-05T02:49:18.790Z,21.17
2023-12-05T02:51:46.390Z,22.73
2023-12-05T02:54:14.020Z,20.43
2023-12-05T02:56:41.591Z,18.13
2023-12-05T02:59:08.996Z,22.13
2023-12-05T03:01:41.295Z,18.50
2023-12-05T03:04:09.042Z,19.73
2023-12-05T03:06:36.771Z,21.83
2023-12-05T03:09:04.790Z,20.70
2023-12-05T03:11:32.767Z,18.50
2023-12-05T03:14:00.690Z,18.87
2023-12-05T03:16:28.313Z,20.13
2023-12-05T03:18:57.835Z,19.63
2023-12-05T03:21:25.805Z,21.10
2023-12-05T03:23:53.526Z,21.67
2023-12-05T03:26:21.540Z,21.13
2023-12-05T03:28:49.789Z,21.27
2023-12-05T03:31:17.513Z,23.13
2023-12-05T03:33:45.553Z,21.07
2023-12-05T03:36:14.896Z,19.00
2023-12-05T03:38:42.711Z,22.70
2023-12-05T03:41:10.791Z,23.23
2023-12-05T03:43:38.326Z,19.20
2023-12-05T03:46:06.096Z,20.10
2023-12-05T03:48:33.768Z,21.63
2023-12-05T03:51:01.318Z,21.00
2023-12-05T03:53:30.180Z,21.47
2023-12-05T03:55:57.620Z,22.47
2023-12-05T03:58:25.383Z,20.33
2023-12-05T04:00:52.933Z,20.17
2023-12-05T04:03:21.487Z,20.97
2023-12-05T04:05:49.063Z,19.00
2023-12-05T04:08:16.654Z,20.87
2023-12-05T04:10:45.438Z,19.90
2023-12-05T04:13:12.944Z,21.87
2023-12-05T04:15:41.732Z,21.97
2023-12-05T04:18:09.353Z,20.20
2023-12-05T04:20:36.918Z,19.60
2023-12-05T04:23:04.431Z,21.67
2023-12-05T04:25:31.913Z,21.20
2023-12-05T04:28:00.705Z,23.03
2023-12-05T04:30:28.186Z,19.27
2023-12-05T04:32:55.751Z,21.93
2023-12-05T04:35:23.271Z,20.90
2023-12-05T04:37:50.763Z,20.47
2023-12-05T04:40:20.210Z,20.57
2023-12-05T04:42:48.086Z,20.47
2023-12-05T04:45:17.358Z,19.93
2023-12-05T04:47:45.369Z,20.30
2023-12-05T04:50:12.857Z,21.47
2023-12-05T04:52:40.349Z,19.27
2023-12-05T04:55:08.409Z,22.67
2023-12-05T04:57:35.907Z,22.23
2023-12-05T05:00:04.344Z,20.77
2023-12-05T05:02:33.153Z,21.13
2023-12-05T05:05:01.136Z,22.63
2023-12-05T05:07:28.719Z,18.93
2023-12-05T05:09:56.200Z,21.60
2023-12-05T05:12:23.720Z,21.37
2023-12-05T05:14:51.148Z,20.20
2023-12-05T05:17:18.566Z,22.50
2023-12-05T05:19:47.406Z,20.30
2023-12-05T05:22:15.174Z,21.20
2023-12-05T05:24:42.850Z,22.87
2023-12-05T05:27:10.496Z,21.93
2023-12-05T05:29:37.969Z,20.80
2023-12-05T05:32:06.312Z,21.43
2023-12-05T05:34:33.953Z,22.23
2023-12-05T05:37:02.898Z,19.77
2023-12-05T05:39:30.439Z,21.57
2023-12-05T05:41:57.946Z,22.93
2023-12-05T05:44:25.903Z,21.73
2023-12-05T05:46:53.381Z,22.63
2023-12-05T05:49:20.984Z,21.13
2023-12-05T05:51:48.549Z,23.17
2023-12-05T05:54:17.466Z,22.57
2023-12-05T05:56:44.897Z,21.80
2023-12-05T05:59:12.375Z,21.53
2023-12-05T06:01:39.843Z,20.53
2023-12-05T06:04:07.377Z,20.50
2023-12-05T06:06:34.926Z,21.37
2023-12-05T06:09:02.467Z,21.20
2023-12-05T06:11:31.337Z,21.27
2023-12-05T06:13:58.863Z,21.00
2023-12-05T06:16:26.752Z,19.87
2023-12-05T06:18:55.345Z,21.63
2023-12-05T06:21:22.955Z,20.23
2023-12-05T06:23:50.430Z,22.33
2023-12-05T06:26:19.597Z,20.97
2023-12-05T06:28:48.382Z,21.43
2023-12-05T06:31:17.496Z,20.37
2023-12-05T06:33:46.241Z,22.50
2023-12-05T06:36:15.104Z,19.87
2023-12-05T06:38:42.562Z,20.00
2023-12-05T06:41:10.179Z,20.27
2023-12-05T06:43:37.801Z,19.73
2023-12-05T06:46:06.917Z,21.03
2023-12-05T06:48:34.471Z,20.00
2023-12-05T06:51:02.062Z,20.73
2023-12-05T06:53:29.719Z,20.83
2023-12-05T06:55:58.193Z,21.43
2023-12-05T06:58:26.297Z,20.90
2023-12-05T07:00:53.820Z,20.03
2023-12-05T07:03:23.436Z,19.50
2023-12-05T07:05:51.045Z,21.23
2023-12-05T07:08:19.788Z,22.83
2023-12-05T07:10:47.221Z,19.40
2023-12-05T07:13:14.817Z,24.70
2023-12-05T07:15:42.306Z,20.93
2023-12-05T07:18:10.278Z,20.03
2023-12-05T07:20:39.113Z,19.30
2023-12-05T07:23:06.695Z,20.07
2023-12-05T07:25:34.109Z,22.70
2023-12-05T07:28:01.540Z,19.93
2023-12-05T07:30:28.998Z,22.10
2023-12-05T07:32:56.522Z,20.77
2023-12-05T07:35:24.282Z,24.00
2023-12-05T07:37:53.146Z,20.50
2023-12-05T07:40:20.938Z,20.17
2023-12-05T07:42:48.431Z,19.57
2023-12-05T07:45:16.031Z,18.47
2023-12-05T07:47:44.454Z,20.83
2023-12-05T07:50:14.253Z,20.87
2023-12-05T07:52:42.843Z,20.07
2023-12-05T07:55:11.755Z,21.90
2023-12-05T07:57:39.235Z,20.17
2023-12-05T08:00:15.625Z,21.07
2023-12-05T08:02:43.128Z,21.00
2023-12-05T08:05:11.466Z,22.50
2023-12-05T08:07:39.220Z,23.10
2023-12-05T08:10:07.693Z,20.20
2023-12-05T08:12:36.928Z,19.80
2023-12-05T08:15:05.592Z,20.63
2023-12-05T08:17:33.082Z,18.37
2023-12-05T08:20:00.596Z,21.47
2023-12-05T08:22:28.066Z,20.00
2023-12-05T08:24:55.588Z,21.97
2023-12-05T08:27:23.629Z,20.50
2023-12-05T08:29:52.429Z,19.70
2023-12-05T08:32:19.867Z,22.37
2023-12-05T08:34:47.465Z,20.40
2023-12-05T08:37:15.092Z,22.00
2023-12-05T08:39:42.779Z,22.50
2023-12-05T08:42:10.242Z,22.27
2023-12-05T08:44:37.656Z,22.83
2023-12-05T08:47:06.768Z,19.70
2023-12-05T08:49:34.355Z,19.23
2023-12-05T08:52:01.854Z,21.20
2023-12-05T08:54:29.321Z,21.37
2023-12-05T08:56:57.307Z,21.70
2023-12-05T08:59:24.811Z,21.13
2023-12-05T09:01:52.369Z,20.87
2023-12-05T09:04:21.325Z,19.97
2023-12-05T09:06:49.199Z,23.13
2023-12-05T09:09:17.876Z,22.43
2023-12-05T09:11:46.618Z,22.93
2023-12-05T09:14:14.129Z,21.80
2023-12-05T09:16:42.052Z,21.20
2023-12-05T09:19:09.708Z,25.10
2023-12-05T09:21:38.696Z,20.87
2023-12-05T09:24:09.319Z,22.43
2023-12-05T09:26:36.785Z,22.37
2023-12-05T09:29:05.076Z,20.97
2023-12-05T09:31:33.005Z,22.90
2023-12-05T09:34:00.580Z,20.17
2023-12-05T09:36:28.104Z,20.20
2023-12-05T09:38:57.538Z,22.27
2023-12-05T09:41:25.322Z,22.37
2023-12-05T09:43:53.291Z,20.53
2023-12-05T09:46:22.601Z,23.10
2023-12-05T09:48:52.361Z,23.63
2023-12-05T09:51:20.127Z,22.87
2023-12-05T09:53:50.072Z,21.60
2023-12-05T09:56:20.247Z,22.97
2023-12-05T09:58:48.266Z,22.37
2023-12-05T10:01:17.325Z,23.60
2023-12-05T10:03:46.357Z,20.17
2023-12-05T10:06:19.860Z,21.40
2023-12-05T10:08:48.462Z,23.67
2023-12-05T10:11:16.081Z,21.83
2023-12-05T10:13:45.704Z,21.13
2023-12-05T10:16:13.493Z,22.10
2023-12-05T10:18:42.287Z,21.67
2023-12-05T10:21:09.854Z,21.47
2023-12-05T10:23:37.498Z,20.47
2023-12-05T10:26:05.316Z,19.87
2023-12-05T10:28:32.773Z,22.10
2023-12-05T10:31:14.883Z,19.87
2023-12-05T10:33:42.555Z,17.67
2023-12-05T10:36:13.541Z,18.77
2023-12-05T10:38:44.659Z,18.63
2023-12-05T10:41:12.419Z,18.90
2023-12-05T10:43:49.490Z,19.13
2023-12-05T10:46:18.462Z,21.33
2023-12-05T10:48:46.298Z,21.43
2023-12-05T10:51:13.005Z,18.63
2023-12-05T10:53:41.115Z,20.20
2023-12-05T10:56:16.364Z,20.27
2023-12-05T10:58:44.488Z,20.80
2023-12-05T11:01:13.023Z,19.73
2023-12-05T11:03:42.975Z,19.03
2023-12-05T11:06:10.900Z,20.97
2023-12-05T11:08:38.557Z,18.73
2023-12-05T11:11:06.971Z,19.37
2023-12-05T11:13:36.553Z,19.63
2023-12-05T11:16:11.170Z,19.37
2023-12-05T11:18:41.156Z,19.97
2023-12-05T11:21:28.306Z,19.57
2023-12-05T11:24:06.765Z,19.20
2023-12-05T11:26:55.750Z,20.97
2023-12-05T11:29:55.393Z,19.30
2023-12-05T11:32:32.648Z,20.67
2023-12-05T11:35:10.635Z,18.60
2023-12-05T11:37:53.888Z,20.17
2023-12-05T11:40:21.426Z,17.90
2023-12-05T11:43:08.701Z,20.67
2023-12-05T11:45:40.094Z,17.87
2023-12-05T11:48:10.651Z,16.90
2023-12-05T11:50:44.342Z,18.70
2023-12-05T11:53:15.371Z,21.53
2023-12-05T11:55:46.928Z,19.43
2023-12-05T11:58:28.208Z,18.97
2023-12-05T12:01:06.983Z,17.97
2023-12-05T12:03:53.167Z,17.13
2023-12-05T12:06:22.224Z,18.37
2023-12-05T12:08:54.563Z,19.70
2023-12-05T12:11:23.457Z,17.03
2023-12-05T12:13:51.698Z,18.90
2023-12-05T12:16:20.600Z,18.73
2023-12-05T12:18:53.808Z,18.33
2023-12-05T12:21:24.329Z,17.27
2023-12-05T12:23:59.264Z,17.23
2023-12-05T12:26:27.405Z,18.97
2023-12-05T12:28:54.949Z,17.07
2023-12-05T12:31:26.996Z,17.90
2023-12-05T12:33:55.110Z,19.23
2023-12-05T12:36:23.631Z,15.83
2023-12-05T12:38:51.577Z,18.73
2023-12-05T12:41:21.348Z,18.57
2023-12-05T12:43:48.858Z,17.30
2023-12-05T12:46:16.632Z,17.53
2023-12-05T12:48:44.391Z,19.00
2023-12-05T12:51:12.463Z,18.53
2023-12-05T12:53:40.011Z,17.37
2023-12-05T12:56:10.986Z,19.17
2023-12-05T12:58:41.109Z,17.87
2023-12-05T13:01:11.534Z,19.10
2023-12-05T13:03:39.335Z,17.23
2023-12-05T13:06:07.190Z,18.50
2023-12-05T13:08:34.783Z,18.77
2023-12-05T13:11:02.347Z,18.57
2023-12-05T13:13:30.199Z,18.20
2023-12-05T13:15:59.609Z,20.30
2023-12-05T13:18:27.244Z,20.23
2023-12-05T13:20:56.352Z,19.67
2023-12-05T13:23:24.675Z,20.63
2023-12-05T13:25:52.465Z,22.60
2023-12-05T13:28:20.094Z,19.43
2023-12-05T13:30:47.641Z,20.73
2023-12-05T13:33:17.021Z,20.67
2023-12-05T13:35:45.015Z,19.03
2023-12-05T13:38:12.866Z,21.90
2023-12-05T13:40:40.416Z,21.70
2023-12-05T13:43:08.142Z,21.03
2023-12-05T13:45:36.122Z,21.00
2023-12-05T13:48:04.951Z,19.40
2023-12-05T13:50:33.877Z,21.87
2023-12-05T13:53:01.438Z,20.57
2023-12-05T13:55:29.092Z,21.27
2023-12-05T13:57:56.669Z,20.83
2023-12-05T14:00:24.947Z,21.57
2023-12-05T14:02:52.565Z,19.10
2023-12-05T14:05:20.288Z,21.70
2023-12-05T14:07:49.198Z,20.60
2023-12-05T14:10:17.094Z,18.57
2023-12-05T14:12:44.574Z,21.00
2023-12-05T14:15:12.571Z,19.23
2023-12-05T14:17:40.042Z,23.17
2023-12-05T14:20:11.486Z,24.20
2023-12-05T14:22:39.718Z,20.50
2023-12-05T14:25:10.297Z,21.97
2023-12-05T14:27:37.914Z,20.53
2023-12-05T14:30:06.355Z,23.10
2023-12-05T14:32:33.978Z,23.63
2023-12-05T14:35:01.598Z,23.63
2023-12-05T14:37:29.133Z,23.77
2023-12-05T14:39:57.454Z,25.30
2023-12-05T14:42:26.484Z,24.90
2023-12-05T14:44:53.948Z,24.03
2023-12-05T14:47:21.649Z,21.80
2023-12-05T14:49:53.994Z,23.17
2023-12-05T14:52:21.585Z,22.47
2023-12-05T14:54:49.093Z,21.63
2023-12-05T14:57:16.988Z,24.57
2023-12-05T14:59:46.127Z,23.13
2023-12-05T15:02:13.629Z,25.60
2023-12-05T15:04:41.561Z,21.90
2023-12-05T15:07:09.150Z,24.87
2023-12-05T15:09:36.996Z,23.50
2023-12-05T15:12:05.393Z,24.80
2023-12-05T15:14:32.829Z,23.27
2023-12-05T15:17:04.908Z,20.93
2023-12-05T15:19:32.478Z,24.30
2023-12-05T15:22:00.129Z,27.47
2023-12-05T15:24:27.724Z,31.83
2023-12-05T15:26:55.193Z,25.17
2023-12-05T15:29:28.617Z,23.60
2023-12-05T15:32:05.356Z,26.30
2023-12-05T15:34:34.943Z,26.53
2023-12-05T15:37:03.053Z,23.87
2023-12-05T15:39:35.021Z,23.60
2023-12-05T15:42:04.562Z,26.90
2023-12-05T15:44:33.605Z,24.77
2023-12-05T15:47:01.152Z,25.53
2023-12-05T15:49:29.965Z,25.53
2023-12-05T15:51:57.584Z,26.63
2023-12-05T15:54:25.135Z,26.23
2023-12-05T15:56:53.076Z,27.60
2023-12-05T15:59:20.905Z,27.53
2023-12-05T16:01:48.620Z,25.33
2023-12-05T16:04:16.111Z,26.27
2023-12-05T16:06:45.889Z,29.67
2023-12-05T16:09:21.140Z,28.23
2023-12-05T16:11:52.811Z,29.30
2023-12-05T16:14:22.569Z,24.83
2023-12-05T16:16:50.667Z,31.00
2023-12-05T16:19:18.172Z,26.17
2023-12-05T16:21:47.038Z,28.27
2023-12-05T16:24:14.551Z,30.07
2023-12-05T16:26:42.956Z,29.07
2023-12-05T16:29:10.445Z,28.50
2023-12-05T16:31:37.892Z,29.87
2023-12-05T16:34:05.625Z,25.23
2023-12-05T16:36:33.172Z,27.43
2023-12-05T16:39:01.967Z,32.60
2023-12-05T16:41:33.865Z,31.17
2023-12-05T16:44:01.470Z,29.70
2023-12-05T16:46:30.120Z,29.90
2023-12-05T16:48:57.719Z,33.07
2023-12-05T16:51:27.064Z,28.10
2023-12-05T16:53:54.661Z,28.60
2023-12-05T16:56:23.436Z,27.80
2023-12-05T16:58:50.889Z,29.43
2023-12-05T17:01:18.427Z,29.77
2023-12-05T17:03:46.056Z,30.87
2023-12-05T17:06:13.615Z,30.80
2023-12-05T17:08:41.117Z,30.10
2023-12-05T17:11:08.551Z,32.23
2023-12-05T17:13:37.335Z,28.17
2023-12-05T17:16:05.555Z,31.03
2023-12-05T17:18:33.031Z,27.00
2023-12-05T17:21:00.927Z,28.03
2023-12-05T17:23:30.479Z,29.87
2023-12-05T17:25:57.953Z,32.70
2023-12-05T17:28:25.387Z,32.47
2023-12-05T17:30:54.203Z,30.83
2023-12-05T17:33:21.862Z,29.47
2023-12-05T17:35:49.425Z,31.00
2023-12-05T17:38:16.892Z,31.07
2023-12-05T17:40:44.334Z,29.10
2023-12-05T17:43:11.851Z,30.17
2023-12-05T17:45:39.523Z,29.87
2023-12-05T17:48:08.740Z,32.17
2023-12-05T17:50:36.213Z,32.10
2023-12-05T17:53:03.654Z,28.97
2023-12-05T17:55:31.241Z,30.97
2023-12-05T17:57:58.835Z,33.43
2023-12-05T18:00:26.763Z,31.57
2023-12-05T18:02:55.277Z,32.93
2023-12-05T18:05:24.130Z,32.43
2023-12-05T18:07:57.853Z,36.13
2023-12-05T18:10:27.444Z,33.07
2023-12-05T18:12:55.055Z,33.80
2023-12-05T18:15:22.585Z,32.37
2023-12-05T18:17:51.187Z,34.10
2023-12-05T18:20:18.735Z,28.70
2023-12-05T18:22:47.781Z,34.03
2023-12-05T18:25:15.960Z,34.27
2023-12-05T18:27:44.177Z,34.20
2023-12-05T18:30:12.077Z,34.70
2023-12-05T18:32:39.743Z,35.80
2023-12-05T18:35:07.738Z,32.73
2023-12-05T18:37:37.258Z,34.37
2023-12-05T18:40:07.592Z,33.90
2023-12-05T18:42:35.333Z,33.50
2023-12-05T18:45:02.833Z,38.47
2023-12-05T18:47:30.336Z,37.70
2023-12-05T18:49:58.102Z,34.73
2023-12-05T18:52:25.748Z,35.60
2023-12-05T18:54:53.292Z,34.37
2023-12-05T18:57:22.259Z,35.07
2023-12-05T18:59:49.789Z,37.03
2023-12-05T19:02:17.232Z,35.60
2023-12-05T19:04:44.717Z,32.63
2023-12-05T19:07:14.029Z,35.67
2023-12-05T19:09:43.052Z,34.00
2023-12-05T19:12:10.790Z,35.67
2023-12-05T19:14:39.575Z,38.10
2023-12-05T19:17:07.143Z,36.27
2023-12-05T19:19:34.765Z,37.10
2023-12-05T19:22:04.312Z,38.53
2023-12-05T19:24:31.990Z,36.13
2023-12-05T19:27:00.879Z,41.30
2023-12-05T19:29:28.350Z,39.93
2023-12-05T19:31:57.105Z,39.30
2023-12-05T19:34:35.102Z,38.37
2023-12-05T19:37:08.180Z,34.70
2023-12-05T19:39:36.003Z,39.07
2023-12-05T19:42:03.984Z,36.57
2023-12-05T19:44:31.525Z,40.67
2023-12-05T19:47:00.334Z,40.13
2023-12-05T19:49:27.966Z,44.13
2023-12-05T19:51:55.718Z,47.13
2023-12-05T19:54:23.383Z,44.73
2023-12-05T19:56:51.051Z,36.07
2023-12-05T19:59:18.472Z,42.63
2023-12-05T20:01:45.992Z,36.93
2023-12-05T20:04:14.916Z,34.67
2023-12-05T20:06:42.686Z,37.53
2023-12-05T20:09:11.174Z,40.80
2023-12-05T20:11:38.813Z,39.20
2023-12-05T20:14:06.260Z,34.50
2023-12-05T20:16:33.728Z,34.10
2023-12-05T20:19:01.584Z,37.47
2023-12-05T20:21:30.676Z,35.00
2023-12-05T20:23:59.115Z,37.50
2023-12-05T20:26:26.545Z,39.03
2023-12-05T20:28:54.061Z,34.77
2023-12-05T20:31:21.601Z,38.47
2023-12-05T20:33:49.198Z,36.27
2023-12-05T20:36:16.674Z,36.50
2023-12-05T20:38:45.547Z,33.57
2023-12-05T20:41:15.593Z,35.07
2023-12-05T20:43:45.050Z,31.47
2023-12-05T20:46:14.028Z,36.93
2023-12-05T20:48:44.096Z,37.17
2023-12-05T20:51:12.793Z,34.10
2023-12-05T20:53:40.362Z,31.33
2023-12-05T20:56:10.452Z,35.30
2023-12-05T20:58:37.921Z,33.37
2023-12-05T21:01:06.777Z,33.07
2023-12-05T21:03:34.236Z,37.90
2023-12-05T21:06:01.920Z,36.13
2023-12-05T21:09:08.934Z,34.83
2023-12-05T21:11:18.118Z,36.43
2023-12-05T21:13:45.581Z,34.00
2023-12-05T21:16:13.138Z,33.60
2023-12-05T21:18:40.759Z,33.63
2023-12-05T21:21:08.757Z,34.70
2023-12-05T21:23:37.552Z,34.70
2023-12-05T21:26:05.249Z,33.83
2023-12-05T21:28:34.023Z,38.73
2023-12-05T21:31:01.498Z,35.30
2023-12-05T21:33:28.991Z,38.70
2023-12-05T21:35:56.433Z,38.07
2023-12-05T21:38:23.895Z,34.40
2023-12-05T21:40:51.473Z,36.93
2023-12-05T21:43:19.008Z,35.93
2023-12-05T21:45:47.788Z,32.47
2023-12-05T21:48:16.425Z,32.93
2023-12-05T21:50:44.270Z,32.97
2023-12-05T21:53:11.710Z,38.10
2023-12-05T21:55:39.178Z,34.23
2023-12-05T21:58:06.676Z,36.97
2023-12-05T22:00:34.178Z,37.97
2023-12-05T22:03:03.065Z,35.40
2023-12-05T22:05:30.501Z,33.77
2023-12-05T22:07:58.059Z,37.70
2023-12-05T22:10:25.613Z,30.83
2023-12-05T22:12:53.095Z,33.07
2023-12-05T22:15:20.536Z,36.83
2023-12-05T22:17:48.105Z,37.90
2023-12-05T22:20:17.010Z,35.50
2023-12-05T22:22:44.518Z,39.60
2023-12-05T22:25:12.025Z,35.07
2023-12-05T22:27:39.648Z,40.13
2023-12-05T22:30:08.455Z,36.23
2023-12-05T22:32:36.081Z,34.03
2023-12-05T22:35:03.670Z,38.40
2023-12-05T22:37:32.524Z,37.30
2023-12-05T22:40:00.039Z,34.37
2023-12-05T22:42:27.791Z,36.47
2023-12-05T22:44:55.216Z,35.80
2023-12-05T22:47:22.889Z,35.07
2023-12-05T22:49:50.525Z,37.37
2023-12-05T22:52:18.023Z,36.23
2023-12-05T22:54:46.788Z,33.27
2023-12-05T22:57:14.944Z,35.27
2023-12-05T22:59:42.620Z,33.13
2023-12-05T23:02:10.351Z,39.87
2023-12-05T23:04:37.797Z,38.07
2023-12-05T23:07:05.478Z,38.13
2023-12-05T23:09:33.078Z,35.27
2023-12-05T23:12:01.865Z,36.83
2023-12-05T23:14:29.328Z,38.87
2023-12-05T23:16:56.745Z,38.30
2023-12-05T23:19:24.520Z,37.47
2023-12-05T23:21:52.239Z,34.43
2023-12-05T23:24:19.791Z,34.27
2023-12-05T23:26:47.237Z,37.63
2023-12-05T23:29:16.146Z,36.07
2023-12-05T23:31:44.292Z,33.30
2023-12-05T23:34:11.965Z,33.53
2023-12-05T23:36:39.625Z,35.50
2023-12-05T23:39:07.083Z,36.17
2023-12-05T23:41:34.513Z,34.47
2023-12-05T23:44:01.992Z,34.67
2023-12-05T23:46:30.836Z,37.27
2023-12-05T23:48:58.403Z,35.03
2023-12-05T23:51:25.863Z,37.20
2023-12-05T23:53:55.262Z,35.43
2023-12-05T23:56:23.180Z,39.60
2023-12-05T23:58:51.250Z,36.87
